Irving North's Hourly Summary for Monday, July 9, 2018
Hour Temp
(f)
RH
(%)
Solar Rad.
(MJ/m2)
Rainfall
(in)
Wind
(mph)
7/9/2018 12:00 AM 81 61 0 0 3.41
7/9/2018 1:00 AM 80 63 0 0 3.78
7/9/2018 2:00 AM 79 67 0 0 3.53
7/9/2018 3:00 AM 78 71 0 0 3.93
7/9/2018 4:00 AM 77 77 0 0 2.84
7/9/2018 5:00 AM 76 79 0 0 2.09
7/9/2018 6:00 AM 77 79 0.03 0 1.28
7/9/2018 7:00 AM 78 71 0.4 0 2.19
7/9/2018 8:00 AM 82 65 1.05 0 1.31
7/9/2018 9:00 AM 85 58 1.68 0 1.63
7/9/2018 10:00 AM 86 50 2.16 0 2.23
7/9/2018 11:00 AM 88 49 2.75 0 3.38
7/9/2018 12:00 PM 89 44 2.99 0 4.8
7/9/2018 1:00 PM 88 49 2.02 0 5.91
7/9/2018 2:00 PM 87 50 1.46 0 6.31
7/9/2018 3:00 PM 80 61 0.9 0 7.87
7/9/2018 4:00 PM 82 62 1.36 0 5.17
7/9/2018 5:00 PM 85 56 0.66 0 4.84
7/9/2018 6:00 PM 87 56 0.63 0 5.62
7/9/2018 7:00 PM 84 58 0.22 0 5.94
7/9/2018 8:00 PM 82 67 0.05 0 4.95
7/9/2018 9:00 PM 81 68 0 0 3.71
7/9/2018 10:00 PM 81 67 0 0 3.68
7/9/2018 11:00 PM 80 68 0 0 2.88
Data Summary 82 62 18.36 0.00 3.89